createdAt,value
2023-04-03T00:01:01.641Z,100738.38
2023-04-03T00:03:29.499Z,100744.31
2023-04-03T00:05:57.097Z,100751.59
2023-04-03T00:08:24.801Z,100743.56
2023-04-03T00:10:52.531Z,100754.22
2023-04-03T00:13:21.576Z,100756.16
2023-04-03T00:15:49.274Z,100766.63
2023-04-03T00:18:16.979Z,100765.47
2023-04-03T00:20:44.807Z,100764.63
2023-04-03T00:23:12.848Z,100769.03
2023-04-03T00:25:40.720Z,100772.88
2023-04-03T00:28:08.757Z,100777.03
2023-04-03T00:30:38.186Z,100773.63
2023-04-03T00:33:06.336Z,100770.81
2023-04-03T00:35:35.986Z,100771.00
2023-04-03T00:38:04.533Z,100768.38
2023-04-03T00:40:37.393Z,100776.63
2023-04-03T00:43:14.443Z,100777.09
2023-04-03T00:45:45.610Z,100773.13
2023-04-03T00:48:17.980Z,100766.72
2023-04-03T00:50:47.136Z,100764.41
2023-04-03T00:53:18.376Z,100773.13
2023-04-03T00:55:48.170Z,100757.59
2023-04-03T00:58:17.864Z,100762.41
2023-04-03T01:00:54.634Z,100766.50
2023-04-03T01:03:22.669Z,100761.88
2023-04-03T01:05:50.804Z,100763.66
2023-04-03T01:08:18.788Z,100757.19
2023-04-03T01:10:46.434Z,100764.38
2023-04-03T01:13:24.050Z,100759.13
2023-04-03T01:15:53.466Z,100762.81
2023-04-03T01:18:21.745Z,100766.81
2023-04-03T01:21:24.997Z,100761.19
2023-04-03T01:24:02.280Z,100762.22
2023-04-03T01:26:30.396Z,100762.69
2023-04-03T01:29:00.722Z,100765.44
2023-04-03T01:31:36.269Z,100761.56
2023-04-03T01:34:05.430Z,100762.34
2023-04-03T01:36:33.962Z,100759.78
2023-04-03T01:39:02.811Z,100767.38
2023-04-03T01:41:31.139Z,100761.03
2023-04-03T01:43:58.760Z,100767.47
2023-04-03T01:46:26.655Z,100765.03
2023-04-03T01:48:54.329Z,100765.97
2023-04-03T01:51:23.831Z,100768.22
2023-04-03T01:53:52.618Z,100760.44
2023-04-03T01:56:21.122Z,100771.06
2023-04-03T01:58:48.874Z,100768.69
2023-04-03T02:01:17.242Z,100766.38
2023-04-03T02:03:45.693Z,100767.25
2023-04-03T02:06:13.407Z,100762.84
2023-04-03T02:08:42.807Z,100762.69
2023-04-03T02:11:10.422Z,100762.41
2023-04-03T02:13:38.275Z,100758.47
2023-04-03T02:16:10.845Z,100755.84
2023-04-03T02:18:38.740Z,100749.88
2023-04-03T02:21:12.370Z,100755.72
2023-04-03T02:23:40.064Z,100760.72
2023-04-03T02:26:11.514Z,100751.94
2023-04-03T02:28:39.718Z,100756.13
2023-04-03T02:31:08.343Z,100756.25
2023-04-03T02:33:37.497Z,100758.25
2023-04-03T02:36:07.408Z,100751.34
2023-04-03T02:38:35.959Z,100745.38
2023-04-03T02:41:04.949Z,100748.66
2023-04-03T02:43:34.245Z,100742.19
2023-04-03T02:46:01.924Z,100738.22
2023-04-03T02:48:29.589Z,100742.72
2023-04-03T02:50:57.427Z,100740.56
2023-04-03T02:53:25.439Z,100747.66
2023-04-03T02:55:53.179Z,100752.03
2023-04-03T02:58:20.844Z,100750.38
2023-04-03T03:00:49.843Z,100752.63
2023-04-03T03:03:17.443Z,100757.19
2023-04-03T03:05:45.630Z,100752.44
2023-04-03T03:08:13.353Z,100755.53
2023-04-03T03:10:41.071Z,100757.81
2023-04-03T03:13:08.892Z,100759.44
2023-04-03T03:15:36.583Z,100753.41
2023-04-03T03:18:06.461Z,100754.91
2023-04-03T03:20:34.484Z,100755.66
2023-04-03T03:23:02.371Z,100758.81
2023-04-03T03:25:30.000Z,100756.75
2023-04-03T03:27:57.665Z,100761.69
2023-04-03T03:30:26.247Z,100765.13
2023-04-03T03:32:53.986Z,100765.03
2023-04-03T03:35:23.068Z,100762.88
2023-04-03T03:37:50.887Z,100771.66
2023-04-03T03:40:18.825Z,100767.66
2023-04-03T03:42:46.520Z,100767.09
2023-04-03T03:45:14.272Z,100763.44
2023-04-03T03:47:41.945Z,100764.31
2023-04-03T03:50:11.216Z,100767.66
2023-04-03T03:52:40.709Z,100764.50
2023-04-03T03:55:09.107Z,100770.28
2023-04-03T03:57:36.945Z,100769.91
2023-04-03T04:00:05.147Z,100766.91
2023-04-03T04:02:33.153Z,100775.31
2023-04-03T04:05:00.994Z,100771.66
2023-04-03T04:07:30.177Z,100774.44
2023-04-03T04:09:59.269Z,100776.97
2023-04-03T04:12:27.068Z,100773.56
2023-04-03T04:14:54.726Z,100772.25
2023-04-03T04:17:23.871Z,100761.97
2023-04-03T04:19:51.591Z,100770.09
2023-04-03T04:22:19.338Z,100769.06
2023-04-03T04:24:47.073Z,100764.88
2023-04-03T04:27:16.633Z,100767.47
2023-04-03T04:29:44.406Z,100771.97
2023-04-03T04:32:12.141Z,100766.06
2023-04-03T04:34:39.809Z,100769.13
2023-04-03T04:37:07.456Z,100761.50
2023-04-03T04:39:35.782Z,100761.78
2023-04-03T04:42:03.447Z,100769.97
2023-04-03T04:44:32.442Z,100769.53
2023-04-03T04:47:00.126Z,100769.81
2023-04-03T04:49:27.811Z,100771.75
2023-04-03T04:51:55.364Z,100774.38
2023-04-03T04:54:23.121Z,100779.72
2023-04-03T04:56:50.823Z,100779.97
2023-04-03T04:59:20.614Z,100782.97
2023-04-03T05:01:50.451Z,100781.03
2023-04-03T05:04:18.780Z,100775.22
2023-04-03T05:06:46.562Z,100783.88
2023-04-03T05:09:14.225Z,100792.56
2023-04-03T05:11:41.799Z,100781.81
2023-04-03T05:14:09.422Z,100778.25
2023-04-03T05:16:37.333Z,100788.72
2023-04-03T05:19:06.355Z,100787.19
2023-04-03T05:21:34.004Z,100784.63
2023-04-03T05:24:03.620Z,100787.97
2023-04-03T05:26:32.286Z,100794.53
2023-04-03T05:29:00.375Z,100783.44
2023-04-03T05:31:30.575Z,100791.13
2023-04-03T05:33:58.464Z,100794.66
2023-04-03T05:36:27.709Z,100792.88
2023-04-03T05:38:57.301Z,100801.59
2023-04-03T05:41:25.790Z,100800.81
2023-04-03T05:43:53.438Z,100804.19
2023-04-03T05:46:23.073Z,100804.03
2023-04-03T05:48:50.917Z,100805.59
2023-04-03T05:51:21.138Z,100806.19
2023-04-03T05:53:52.009Z,100809.72
2023-04-03T05:56:19.611Z,100820.16
2023-04-03T05:58:47.330Z,100814.59
2023-04-03T06:01:15.946Z,100811.09
2023-04-03T06:03:43.744Z,100810.28
2023-04-03T06:06:15.120Z,100811.91
2023-04-03T06:08:42.820Z,100820.56
2023-04-03T06:11:11.817Z,100816.16
2023-04-03T06:13:39.468Z,100822.06
2023-04-03T06:16:07.757Z,100814.25
2023-04-03T06:18:35.316Z,100811.06
2023-04-03T06:21:03.748Z,100821.34
2023-04-03T06:23:31.351Z,100816.84
2023-04-03T06:25:59.307Z,100812.91
2023-04-03T06:28:28.393Z,100809.34
2023-04-03T06:30:56.203Z,100818.53
2023-04-03T06:33:23.852Z,100809.50
2023-04-03T06:35:51.990Z,100811.22
2023-04-03T06:38:19.727Z,100812.22
2023-04-03T06:40:48.050Z,100808.75
2023-04-03T06:43:15.701Z,100819.09
2023-04-03T06:45:44.689Z,100816.31
2023-04-03T06:48:12.624Z,100818.22
2023-04-03T06:50:40.376Z,100820.47
2023-04-03T06:53:08.132Z,100825.38
2023-04-03T06:55:37.229Z,100825.16
2023-04-03T06:58:05.546Z,100818.53
2023-04-03T07:00:33.587Z,100821.34
2023-04-03T07:03:02.715Z,100822.41
2023-04-03T07:05:30.395Z,100825.88
2023-04-03T07:07:58.063Z,100830.59
2023-04-03T07:10:25.830Z,100824.41
2023-04-03T07:12:53.663Z,100843.00
2023-04-03T07:15:21.406Z,100827.94
2023-04-03T07:17:49.569Z,100839.53
2023-04-03T07:20:18.953Z,100843.75
2023-04-03T07:22:46.848Z,100844.88
2023-04-03T07:25:14.607Z,100843.03
2023-04-03T07:27:42.435Z,100837.72
2023-04-03T07:30:11.292Z,100847.19
2023-04-03T07:32:39.065Z,100844.63
2023-04-03T07:35:07.347Z,100856.91
2023-04-03T07:37:36.725Z,100853.09
2023-04-03T07:40:05.333Z,100857.44
2023-04-03T07:42:33.030Z,100858.50
2023-04-03T07:45:01.199Z,100850.31
2023-04-03T07:47:29.074Z,100858.59
2023-04-03T07:49:58.228Z,100852.31
2023-04-03T07:52:26.631Z,100850.09
2023-04-03T07:54:55.940Z,100862.41
2023-04-03T07:57:23.620Z,100855.69
2023-04-03T07:59:51.279Z,100851.47
2023-04-03T08:02:18.883Z,100853.47
2023-04-03T08:04:46.621Z,100865.16
2023-04-03T08:07:14.388Z,100857.03
2023-04-03T08:09:42.358Z,100854.75
2023-04-03T08:12:12.487Z,100848.19
2023-04-03T08:14:40.271Z,100857.56
2023-04-03T08:17:10.460Z,100863.31
2023-04-03T08:19:38.114Z,100865.16
2023-04-03T08:22:06.273Z,100854.59
2023-04-03T08:24:34.188Z,100860.28
2023-04-03T08:27:01.972Z,100864.59
2023-04-03T08:29:32.057Z,100857.63
2023-04-03T08:32:00.744Z,100865.63
2023-04-03T08:34:28.388Z,100857.34
2023-04-03T08:36:56.329Z,100852.66
2023-04-03T08:39:24.056Z,100846.81
2023-04-03T08:41:52.132Z,100855.06
2023-04-03T08:44:27.485Z,100844.31
2023-04-03T08:47:05.534Z,100843.75
2023-04-03T08:49:35.781Z,100841.97
2023-04-03T08:52:12.183Z,100854.66
2023-04-03T08:54:49.554Z,100855.97
2023-04-03T08:57:17.553Z,100848.97
2023-04-03T08:59:45.579Z,100843.22
2023-04-03T09:02:27.571Z,100844.31
2023-04-03T09:04:56.586Z,100857.47
2023-04-03T09:07:32.655Z,100851.53
2023-04-03T09:10:03.921Z,100852.63
2023-04-03T09:12:40.135Z,100864.25
2023-04-03T09:15:20.123Z,100856.28
2023-04-03T09:18:04.874Z,100850.19
2023-04-03T09:20:45.288Z,100851.88
2023-04-03T09:23:21.731Z,100846.41
2023-04-03T09:25:51.058Z,100849.69
2023-04-03T09:28:18.813Z,100852.09
2023-04-03T09:30:47.409Z,100857.72
2023-04-03T09:33:17.538Z,100840.72
2023-04-03T09:35:48.567Z,100850.97
2023-04-03T09:38:20.067Z,100845.16
2023-04-03T09:40:49.224Z,100844.50
2023-04-03T09:43:28.516Z,100849.19
2023-04-03T09:45:57.522Z,100845.84
2023-04-03T09:48:29.237Z,100852.44
2023-04-03T09:51:02.396Z,100845.44
2023-04-03T09:53:37.534Z,100840.13
2023-04-03T09:56:21.584Z,100843.56
2023-04-03T09:58:51.952Z,100836.59
2023-04-03T10:01:27.467Z,100843.56
2023-04-03T10:04:08.512Z,100838.72
2023-04-03T10:06:41.550Z,100840.00
2023-04-03T10:09:19.471Z,100844.06
2023-04-03T10:12:05.653Z,100846.53
2023-04-03T10:14:34.589Z,100848.50
2023-04-03T10:17:17.074Z,100848.63
2023-04-03T10:19:50.275Z,100843.78
2023-04-03T10:22:34.924Z,100844.06
2023-04-03T10:25:11.801Z,100853.31
2023-04-03T10:27:51.439Z,100852.50
2023-04-03T10:30:32.460Z,100849.00
2023-04-03T10:33:07.631Z,100841.75
2023-04-03T10:35:47.159Z,100834.81
2023-04-03T10:38:20.888Z,100842.50
2023-04-03T10:40:56.969Z,100829.44
2023-04-03T10:43:35.650Z,100843.63
2023-04-03T10:46:12.146Z,100836.13
2023-04-03T10:48:53.274Z,100835.16
2023-04-03T10:51:30.010Z,100830.78
2023-04-03T10:54:06.922Z,100840.78
2023-04-03T10:56:39.179Z,100833.47
2023-04-03T10:59:18.886Z,100838.47
2023-04-03T11:01:50.158Z,100830.69
2023-04-03T11:04:22.140Z,100825.97
2023-04-03T11:06:55.681Z,100826.91
2023-04-03T11:09:28.022Z,100822.19
2023-04-03T11:12:03.160Z,100833.00
2023-04-03T11:14:35.632Z,100834.47
2023-04-03T11:17:17.512Z,100826.59
2023-04-03T11:19:51.008Z,100827.44
2023-04-03T11:22:26.046Z,100821.44
2023-04-03T11:25:03.997Z,100817.00
2023-04-03T11:27:39.165Z,100808.81
2023-04-03T11:30:11.890Z,100810.03
2023-04-03T11:32:57.849Z,100818.34
2023-04-03T11:35:27.417Z,100807.84
2023-04-03T11:37:57.671Z,100810.84
2023-04-03T11:40:30.854Z,100807.69
2023-04-03T11:43:08.718Z,100802.44
2023-04-03T11:45:40.220Z,100805.78
2023-04-03T11:48:29.370Z,100799.84
2023-04-03T11:50:59.260Z,100789.47
2023-04-03T11:53:36.633Z,100782.13
2023-04-03T11:56:27.674Z,100788.94
2023-04-03T11:59:19.350Z,100790.44
2023-04-03T12:01:48.628Z,100782.09
2023-04-03T12:04:19.159Z,100776.63
2023-04-03T12:07:22.018Z,100774.25
2023-04-03T12:10:01.560Z,100770.00
2023-04-03T12:12:36.150Z,100771.50
2023-04-03T12:15:27.772Z,100774.00
2023-04-03T12:17:55.700Z,100768.25
2023-04-03T12:20:54.329Z,100765.41
2023-04-03T12:23:31.275Z,100761.69
2023-04-03T12:26:22.843Z,100761.38
2023-04-03T12:28:54.600Z,100754.63
2023-04-03T12:31:25.422Z,100760.13
2023-04-03T12:34:11.449Z,100771.63
2023-04-03T12:36:48.801Z,100763.19
2023-04-03T12:39:37.088Z,100752.31
2023-04-03T12:42:24.209Z,100756.91
2023-04-03T12:45:02.729Z,100756.06
2023-04-03T12:47:37.107Z,100759.00
2023-04-03T12:50:06.873Z,100748.00
2023-04-03T12:52:39.916Z,100761.88
2023-04-03T12:55:16.665Z,100760.78
2023-04-03T12:57:46.600Z,100753.25
2023-04-03T13:00:29.843Z,100751.38
2023-04-03T13:02:57.703Z,100748.50
2023-04-03T13:05:25.748Z,100751.34
2023-04-03T13:08:00.125Z,100749.13
2023-04-03T13:10:27.828Z,100746.72
2023-04-03T13:12:59.339Z,100742.94
2023-04-03T13:15:30.309Z,100743.13
2023-04-03T13:17:58.374Z,100746.59
2023-04-03T13:20:28.525Z,100734.66
2023-04-03T13:23:01.695Z,100740.75
2023-04-03T13:25:32.547Z,100747.44
2023-04-03T13:28:13.321Z,100740.34
2023-04-03T13:30:43.196Z,100739.53
2023-04-03T13:33:23.756Z,100742.72
2023-04-03T13:35:57.965Z,100736.59
2023-04-03T13:38:28.144Z,100749.38
2023-04-03T13:40:58.553Z,100749.41
2023-04-03T13:43:29.115Z,100743.13
2023-04-03T13:46:02.227Z,100749.94
2023-04-03T13:48:37.904Z,100738.75
2023-04-03T13:51:08.707Z,100743.81
2023-04-03T13:53:44.660Z,100736.09
2023-04-03T13:56:22.963Z,100744.09
2023-04-03T13:59:06.265Z,100736.88
2023-04-03T14:01:45.015Z,100742.16
2023-04-03T14:04:17.327Z,100740.22
2023-04-03T14:06:45.645Z,100742.13
2023-04-03T14:09:13.949Z,100741.06
2023-04-03T14:11:42.899Z,100731.03
2023-04-03T14:14:16.006Z,100730.94
2023-04-03T14:16:45.676Z,100723.00
2023-04-03T14:19:21.756Z,100721.31
2023-04-03T14:21:49.827Z,100708.75
2023-04-03T14:24:17.629Z,100719.63
2023-04-03T14:26:46.102Z,100714.06
2023-04-03T14:29:16.276Z,100701.38
2023-04-03T14:31:46.792Z,100696.91
2023-04-03T14:34:15.659Z,100704.16
2023-04-03T14:36:45.120Z,100698.59
2023-04-03T14:39:17.886Z,100696.47
2023-04-03T14:41:46.082Z,100692.41
2023-04-03T14:44:15.078Z,100698.34
2023-04-03T14:46:56.144Z,100699.19
2023-04-03T14:49:29.068Z,100699.75
2023-04-03T14:51:57.184Z,100705.38
2023-04-03T14:54:28.646Z,100692.63
2023-04-03T14:56:58.266Z,100687.75
2023-04-03T14:59:28.595Z,100691.81
2023-04-03T15:01:56.384Z,100678.34
2023-04-03T15:04:24.181Z,100676.22
2023-04-03T15:06:53.935Z,100668.94
2023-04-03T15:09:24.700Z,100665.88
2023-04-03T15:11:53.909Z,100670.81
2023-04-03T15:14:35.409Z,100672.72
2023-04-03T15:17:07.708Z,100685.03
2023-04-03T15:19:39.674Z,100680.66
2023-04-03T15:22:07.762Z,100681.41
2023-04-03T15:24:35.554Z,100677.78
2023-04-03T15:27:03.632Z,100686.91
2023-04-03T15:29:31.328Z,100691.75
2023-04-03T15:31:59.392Z,100678.03
2023-04-03T15:34:28.500Z,100682.34
2023-04-03T15:36:56.253Z,100688.06
2023-04-03T15:39:24.638Z,100685.53
2023-04-03T15:41:53.316Z,100684.53
2023-04-03T15:44:20.971Z,100677.41
2023-04-03T15:46:52.240Z,100678.28
2023-04-03T15:49:20.929Z,100674.34
2023-04-03T15:51:50.010Z,100679.44
2023-04-03T15:54:17.957Z,100673.94
2023-04-03T15:56:45.626Z,100684.19
2023-04-03T15:59:13.358Z,100683.19
2023-04-03T16:01:41.520Z,100683.28
2023-04-03T16:04:11.030Z,100675.53
2023-04-03T16:06:39.831Z,100682.44
2023-04-03T16:09:11.659Z,100678.81
2023-04-03T16:11:40.888Z,100670.97
2023-04-03T16:14:08.982Z,100675.69
2023-04-03T16:16:37.429Z,100669.13
2023-04-03T16:19:06.494Z,100676.03
2023-04-03T16:21:34.337Z,100672.03
2023-04-03T16:24:03.185Z,100664.56
2023-04-03T16:26:32.129Z,100673.16
2023-04-03T16:28:59.849Z,100674.50
2023-04-03T16:31:29.485Z,100670.13
2023-04-03T16:33:58.346Z,100672.59
2023-04-03T16:36:27.452Z,100668.41
2023-04-03T16:38:55.092Z,100669.34
2023-04-03T16:41:22.700Z,100675.41
2023-04-03T16:43:52.444Z,100673.44
2023-04-03T16:46:20.467Z,100667.59
2023-04-03T16:48:48.245Z,100673.97
2023-04-03T16:51:15.969Z,100672.88
2023-04-03T16:53:43.947Z,100663.16
2023-04-03T16:56:11.811Z,100670.81
2023-04-03T16:58:39.383Z,100661.34
2023-04-03T17:01:16.266Z,100661.50
2023-04-03T17:03:44.400Z,100663.84
2023-04-03T17:06:16.903Z,100674.09
2023-04-03T17:08:44.896Z,100671.03
2023-04-03T17:11:12.661Z,100681.16
2023-04-03T17:13:40.373Z,100682.16
2023-04-03T17:16:11.896Z,100673.97
2023-04-03T17:18:41.226Z,100676.03
2023-04-03T17:21:09.652Z,100681.53
2023-04-03T17:23:40.540Z,100684.97
2023-04-03T17:26:08.226Z,100683.09
2023-04-03T17:28:36.922Z,100688.09
2023-04-03T17:31:04.693Z,100687.78
2023-04-03T17:33:32.339Z,100689.22
2023-04-03T17:36:04.361Z,100696.09
2023-04-03T17:38:32.300Z,100699.97
2023-04-03T17:41:01.593Z,100702.84
2023-04-03T17:43:30.693Z,100705.88
2023-04-03T17:46:03.920Z,100700.16
2023-04-03T17:48:31.858Z,100696.78
2023-04-03T17:51:04.573Z,100701.50
2023-04-03T17:53:32.298Z,100701.09
2023-04-03T17:55:59.982Z,100703.56
2023-04-03T17:58:28.340Z,100700.19
2023-04-03T18:00:57.005Z,100703.41
2023-04-03T18:03:24.739Z,100709.19
2023-04-03T18:05:55.318Z,100710.13
2023-04-03T18:08:24.562Z,100704.84
2023-04-03T18:10:53.137Z,100716.19
2023-04-03T18:13:20.786Z,100717.41
2023-04-03T18:15:50.573Z,100707.81
2023-04-03T18:18:18.283Z,100712.50
2023-04-03T18:20:46.424Z,100714.88
2023-04-03T18:23:14.168Z,100713.91
2023-04-03T18:25:43.483Z,100718.38
2023-04-03T18:28:11.412Z,100727.84
2023-04-03T18:30:39.649Z,100725.28
2023-04-03T18:33:07.585Z,100722.56
2023-04-03T18:35:35.310Z,100720.66
2023-04-03T18:38:03.178Z,100731.09
2023-04-03T18:40:32.730Z,100737.25
2023-04-03T18:43:03.155Z,100739.97
2023-04-03T18:45:31.498Z,100741.91
2023-04-03T18:47:59.573Z,100736.44
2023-04-03T18:50:27.320Z,100746.06
2023-04-03T18:52:55.100Z,100740.69
2023-04-03T18:55:23.271Z,100739.78
2023-04-03T18:57:51.054Z,100744.16
2023-04-03T19:00:20.530Z,100741.34
2023-04-03T19:02:49.683Z,100748.31
2023-04-03T19:05:19.698Z,100748.56
2023-04-03T19:07:49.278Z,100756.91
2023-04-03T19:10:19.933Z,100755.09
2023-04-03T19:12:50.049Z,100757.28
2023-04-03T19:15:21.108Z,100757.19
2023-04-03T19:17:48.971Z,100759.66
2023-04-03T19:20:17.277Z,100768.19
2023-04-03T19:22:45.336Z,100769.88
2023-04-03T19:25:13.605Z,100760.72
2023-04-03T19:27:42.499Z,100768.31
2023-04-03T19:30:12.816Z,100768.47
2023-04-03T19:32:42.008Z,100777.75
2023-04-03T19:35:10.428Z,100779.97
2023-04-03T19:37:38.345Z,100776.63
2023-04-03T19:40:07.622Z,100773.19
2023-04-03T19:42:36.841Z,100775.91
2023-04-03T19:45:05.259Z,100777.34
2023-04-03T19:47:33.374Z,100781.53
2023-04-03T19:50:02.684Z,100784.28
2023-04-03T19:52:30.427Z,100784.78
2023-04-03T19:54:58.297Z,100780.75
2023-04-03T19:57:26.124Z,100790.19
2023-04-03T19:59:53.930Z,100783.03
2023-04-03T20:02:21.693Z,100788.44
2023-04-03T20:04:49.565Z,100790.41
2023-04-03T20:07:18.782Z,100788.44
2023-04-03T20:09:46.744Z,100792.59
2023-04-03T20:12:14.499Z,100787.47
2023-04-03T20:14:42.550Z,100791.47
2023-04-03T20:17:10.396Z,100796.81
2023-04-03T20:19:38.689Z,100792.00
2023-04-03T20:22:06.412Z,100796.72
2023-04-03T20:24:35.412Z,100800.47
2023-04-03T20:27:03.188Z,100792.81
2023-04-03T20:29:30.987Z,100800.06
2023-04-03T20:31:58.795Z,100804.66
2023-04-03T20:34:26.737Z,100802.97
2023-04-03T20:36:55.259Z,100799.09
2023-04-03T20:39:24.680Z,100802.78
2023-04-03T20:41:54.540Z,100800.78
2023-04-03T20:44:22.377Z,100800.88
2023-04-03T20:46:53.441Z,100803.28
2023-04-03T20:49:22.636Z,100802.75
2023-04-03T20:51:51.242Z,100800.34
2023-04-03T20:54:19.174Z,100801.72
2023-04-03T20:56:47.329Z,100803.75
2023-04-03T20:59:16.885Z,100806.34
2023-04-03T21:01:44.838Z,100800.47
2023-04-03T21:04:17.025Z,100805.13
2023-04-03T21:07:23.017Z,100804.56
2023-04-03T21:10:29.079Z,100801.09
2023-04-03T21:13:34.745Z,100802.91
2023-04-03T21:16:02.244Z,100797.25
2023-04-03T21:19:03.726Z,100796.78
2023-04-03T21:21:31.380Z,100799.69
2023-04-03T21:23:59.254Z,100800.63
2023-04-03T21:26:27.946Z,100803.78
2023-04-03T21:28:56.532Z,100805.56
2023-04-03T21:31:24.761Z,100798.75
2023-04-03T21:33:54.017Z,100802.56
2023-04-03T21:36:21.706Z,100797.69
2023-04-03T21:38:51.548Z,100804.47
2023-04-03T21:41:19.106Z,100808.97
2023-04-03T21:43:47.860Z,100806.66
2023-04-03T21:46:15.674Z,100801.41
2023-04-03T21:48:43.434Z,100805.19
2023-04-03T21:51:12.565Z,100807.59
2023-04-03T21:53:41.571Z,100799.34
2023-04-03T21:56:09.342Z,100797.03
2023-04-03T21:58:37.071Z,100803.75
2023-04-03T22:01:11.632Z,100793.25
2023-04-03T22:03:40.905Z,100801.72
2023-04-03T22:06:09.292Z,100802.66
2023-04-03T22:08:38.730Z,100798.34
2023-04-03T22:11:08.491Z,100804.63
2023-04-03T22:13:37.396Z,100799.75
2023-04-03T22:16:05.987Z,100797.13
2023-04-03T22:18:34.150Z,100798.84
2023-04-03T22:21:01.841Z,100798.72
2023-04-03T22:23:29.494Z,100796.34
2023-04-03T22:26:03.358Z,100805.44
2023-04-03T22:28:32.589Z,100801.19
2023-04-03T22:31:02.375Z,100805.81
2023-04-03T22:33:30.383Z,100804.16
2023-04-03T22:35:58.064Z,100802.75
2023-04-03T22:38:25.764Z,100803.16
2023-04-03T22:41:02.202Z,100804.63
2023-04-03T22:43:31.586Z,100800.72
2023-04-03T22:46:01.398Z,100804.25
2023-04-03T22:48:29.446Z,100795.44
2023-04-03T22:50:57.285Z,100796.63
2023-04-03T22:53:25.008Z,100794.56
2023-04-03T22:55:57.047Z,100798.28
2023-04-03T22:58:26.948Z,100796.97
2023-04-03T23:00:55.087Z,100799.22
2023-04-03T23:03:23.365Z,100798.59
2023-04-03T23:05:52.532Z,100801.91
2023-04-03T23:08:21.027Z,100804.88
2023-04-03T23:10:48.811Z,100801.81
2023-04-03T23:13:16.496Z,100804.09
2023-04-03T23:15:45.719Z,100795.69
2023-04-03T23:18:13.481Z,100801.09
2023-04-03T23:20:41.478Z,100798.09
2023-04-03T23:23:09.336Z,100802.94
2023-04-03T23:25:37.728Z,100802.75
2023-04-03T23:28:05.420Z,100804.72
2023-04-03T23:30:33.732Z,100807.16
2023-04-03T23:33:02.771Z,100813.41
2023-04-03T23:35:30.549Z,100811.63
2023-04-03T23:37:58.276Z,100815.16
2023-04-03T23:40:25.953Z,100811.91
2023-04-03T23:42:53.577Z,100806.88
2023-04-03T23:45:21.276Z,100809.06
2023-04-03T23:47:49.089Z,100809.00
2023-04-03T23:50:18.114Z,100809.47
2023-04-03T23:52:45.722Z,100808.75
2023-04-03T23:55:13.582Z,100796.03
2023-04-03T23:57:42.919Z,100812.22
